Time;durP1;ratioP1;P1;durP2;ratioP2;P2;SDS_P1;SDS_P2;PMS_P1;PMS_P2;Temp;Humidity;BMP_temperature;BMP_pressure;BME280_temperature;BME280_humidity;BME280_pressure;Samples;Min_cycle;Max_cycle;Signal;HPM_P1;HPM_P2
2022/08/11 00:01:08;;;;;;;7.43;5.10;;;17.40;99.90;;;;;;5009369;28;20442;-60
2022/08/11 00:03:35;;;;;;;6.00;4.82;;;17.40;99.90;;;;;;5013973;28;20084;-60
2022/08/11 00:06:03;;;;;;;10.13;4.72;;;17.40;99.90;;;;;;5012987;28;20490;-60
2022/08/11 00:08:33;;;;;;;8.50;5.28;;;17.40;99.90;;;;;;5013326;28;20447;-60
2022/08/11 00:11:02;;;;;;;8.40;4.78;;;17.40;99.90;;;;;;4995814;28;20050;-60
2022/08/11 00:13:35;;;;;;;10.65;5.28;;;17.30;99.90;;;;;;4996418;28;20125;-60
2022/08/11 00:16:03;;;;;;;6.72;4.90;;;17.30;99.90;;;;;;4995651;28;20053;-60
2022/08/11 00:18:38;;;;;;;9.00;5.47;;;17.30;99.90;;;;;;5013124;28;20049;-59
2022/08/11 00:21:06;;;;;;;6.75;4.97;;;17.30;99.90;;;;;;5013693;28;20054;-59
2022/08/11 00:23:41;;;;;;;7.95;5.90;;;17.30;99.90;;;;;;5013013;28;20061;-59
2022/08/11 00:26:08;;;;;;;8.38;5.95;;;17.20;99.90;;;;;;4995472;28;20081;-60
2022/08/11 00:28:36;;;;;;;10.80;5.35;;;17.20;99.90;;;;;;5013669;28;20058;-60
2022/08/11 00:31:04;;;;;;;8.07;5.22;;;17.20;99.90;;;;;;4993593;28;20568;-60
2022/08/11 00:33:37;;;;;;;8.27;5.65;;;17.10;99.90;;;;;;4976039;28;20470;-60
2022/08/11 00:36:05;;;;;;;7.20;5.22;;;17.10;99.90;;;;;;4993292;28;20134;-60
2022/08/11 00:38:37;;;;;;;9.52;5.47;;;17.10;99.90;;;;;;4993928;28;20121;-59
2022/08/11 00:41:20;;;;;;;8.15;4.53;;;17.10;99.90;;;;;;4975841;28;20073;-60
2022/08/11 00:44:22;;;;;;;8.18;5.97;;;17.10;99.90;;;;;;4976110;28;20141;-60
2022/08/11 00:46:59;;;;;;;7.55;5.13;;;17.00;99.90;;;;;;4930778;28;20086;-60
2022/08/11 00:49:39;;;;;;;9.75;5.07;;;17.00;99.90;;;;;;4994042;28;20096;-60
2022/08/11 00:52:19;;;;;;;8.65;5.97;;;17.00;99.90;;;;;;4975743;28;20085;-59
2022/08/11 00:55:26;;;;;;;8.10;5.50;;;17.00;99.90;;;;;;4976066;28;20097;-59
2022/08/11 00:58:26;;;;;;;8.80;5.35;;;17.00;99.90;;;;;;4992986;28;20100;-60
2022/08/11 01:01:09;;;;;;;7.30;5.33;;;17.00;99.90;;;;;;4975726;28;20082;-60
2022/08/11 01:04:06;;;;;;;7.97;5.45;;;17.00;99.90;;;;;;4976563;28;20292;-59
2022/08/11 01:06:55;;;;;;;8.15;5.60;;;17.00;99.90;;;;;;4980422;28;20082;-59
2022/08/11 01:09:33;;;;;;;7.60;5.15;;;17.00;99.90;;;;;;4992614;28;20502;-59
2022/08/11 01:12:29;;;;;;;7.20;5.13;;;17.00;99.90;;;;;;4993282;28;20078;-59
2022/08/11 01:15:42;;;;;;;8.90;5.45;;;16.90;99.90;;;;;;4975219;28;20522;-59
2022/08/11 01:18:49;;;;;;;7.72;5.65;;;16.90;99.90;;;;;;4975883;28;20142;-60
2022/08/11 01:21:52;;;;;;;8.07;6.10;;;16.90;99.90;;;;;;4979318;28;20100;-60
2022/08/11 01:25:01;;;;;;;9.57;5.72;;;16.90;99.90;;;;;;4939485;28;20450;-60
2022/08/11 01:28:37;;;;;;;9.48;6.15;;;16.90;99.90;;;;;;4960151;28;20565;-60
2022/08/11 01:31:31;;;;;;;10.80;6.53;;;16.80;99.90;;;;;;4977822;28;20078;-60
2022/08/11 01:34:37;;;;;;;8.00;5.88;;;16.80;99.90;;;;;;4960301;28;20533;-60
2022/08/11 01:37:29;;;;;;;9.50;5.10;;;16.80;99.90;;;;;;4935571;28;20471;-60
2022/08/11 01:40:25;;;;;;;11.60;5.78;;;16.70;99.90;;;;;;4977362;28;20415;-60
2022/08/11 01:46:27;;;;;;;12.52;7.03;;;16.70;99.90;;;;;;4977111;28;20495;-60
2022/08/11 01:49:03;;;;;;;11.05;6.30;;;16.60;99.90;;;;;;4977481;28;20138;-59
2022/08/11 01:51:44;;;;;;;9.57;6.40;;;16.60;99.90;;;;;;4976312;28;20569;-59
2022/08/11 01:54:22;;;;;;;9.32;6.32;;;16.70;99.90;;;;;;4959828;28;20062;-60
2022/08/11 01:57:09;;;;;;;8.13;6.25;;;16.60;99.90;;;;;;4959763;28;20051;-59
2022/08/11 01:59:47;;;;;;;9.35;6.93;;;16.60;99.90;;;;;;4977244;28;20450;-60
2022/08/11 02:02:46;;;;;;;13.38;6.82;;;16.60;99.90;;;;;;4959166;28;20046;-60
2022/08/11 02:06:00;;;;;;;12.02;7.43;;;16.60;99.90;;;;;;4959391;28;20490;-60
2022/08/11 02:08:40;;;;;;;10.05;6.95;;;16.60;99.90;;;;;;4958762;28;20151;-60
2022/08/11 02:11:30;;;;;;;12.88;6.80;;;16.50;99.90;;;;;;4959564;28;20066;-60
2022/08/11 02:14:02;;;;;;;10.57;7.10;;;16.60;99.90;;;;;;4976921;28;20105;-60
2022/08/11 02:16:46;;;;;;;10.30;6.65;;;16.60;99.90;;;;;;4976707;28;20454;-60
2022/08/11 02:25:17;;;;;;;11.52;7.28;;;16.50;99.90;;;;;;4995758;28;20054;-59
2022/08/11 02:27:50;;;;;;;11.00;7.30;;;16.50;99.90;;;;;;4996039;28;20477;-60
2022/08/11 02:30:24;;;;;;;13.13;7.43;;;16.50;99.90;;;;;;4995562;28;20058;-60
2022/08/11 02:35:46;;;;;;;11.88;7.53;;;16.50;99.90;;;;;;4995992;28;20062;-60
2022/08/11 02:38:24;;;;;;;9.50;7.28;;;16.50;99.90;;;;;;4977979;28;20058;-60
2022/08/11 02:40:59;;;;;;;9.40;7.05;;;16.50;99.90;;;;;;4978522;28;20498;-60
2022/08/11 02:43:44;;;;;;;10.55;7.28;;;16.40;99.90;;;;;;4995349;28;20109;-60
2022/08/11 02:46:21;;;;;;;15.00;7.70;;;16.40;99.90;;;;;;4995548;28;20109;-60
2022/08/11 02:51:59;;;;;;;11.95;8.15;;;16.40;99.90;;;;;;4995659;28;20129;-60
2022/08/11 02:54:42;;;;;;;9.82;7.43;;;16.40;99.90;;;;;;4995184;28;20549;-60
2022/08/11 02:57:18;;;;;;;10.07;7.28;;;16.40;99.90;;;;;;4995190;28;20051;-60
2022/08/11 02:59:51;;;;;;;12.02;7.95;;;16.40;99.90;;;;;;4977702;28;20081;-60
2022/08/11 03:02:31;;;;;;;12.55;8.15;;;16.40;99.90;;;;;;4995263;28;20133;-60
2022/08/11 03:05:12;;;;;;;15.82;8.65;;;16.30;99.90;;;;;;4995512;28;20076;-61
2022/08/11 03:07:51;;;;;;;14.48;7.88;;;16.30;99.90;;;;;;4977436;28;20050;-60
2022/08/11 03:10:22;;;;;;;13.30;8.45;;;16.30;99.90;;;;;;4995502;28;20061;-60
2022/08/11 03:18:37;;;;;;;11.18;8.07;;;16.20;99.90;;;;;;4961909;28;20166;-60
2022/08/11 03:21:10;;;;;;;11.02;7.70;;;16.20;99.90;;;;;;4994902;28;20085;-60
2022/08/11 03:23:47;;;;;;;17.42;7.60;;;16.20;99.90;;;;;;4977307;28;20545;-60
2022/08/11 03:26:24;;;;;;;13.82;8.65;;;16.10;99.90;;;;;;4994923;28;20498;-60
2022/08/11 03:29:01;;;;;;;12.50;8.10;;;16.10;99.90;;;;;;4976988;28;20133;-60
2022/08/11 03:31:34;;;;;;;12.00;8.20;;;16.10;99.90;;;;;;4976873;28;20058;-59
2022/08/11 03:34:05;;;;;;;13.60;8.80;;;16.10;99.90;;;;;;4976527;28;20145;-60
2022/08/11 03:40:10;;;;;;;13.68;9.52;;;16.20;99.90;;;;;;4991753;28;20053;-60
2022/08/11 03:42:44;;;;;;;13.60;8.52;;;16.20;99.90;;;;;;4993266;28;20081;-60
2022/08/11 03:45:23;;;;;;;14.57;9.13;;;16.20;99.90;;;;;;4994701;28;20454;-60
2022/08/11 03:48:07;;;;;;;10.73;8.30;;;16.10;99.90;;;;;;4994165;28;20463;-60
2022/08/11 03:50:56;;;;;;;16.08;7.18;;;16.20;99.90;;;;;;4974608;28;20054;-60
2022/08/11 03:53:47;;;;;;;10.15;6.63;;;16.30;99.90;;;;;;4962498;28;20070;-60
2022/08/11 03:56:53;;;;;;;12.50;7.88;;;16.50;99.90;;;;;;4984222;28;20065;-60
2022/08/11 04:00:10;;;;;;;9.75;6.15;;;16.80;99.90;;;;;;4987713;28;20413;-60
2022/08/11 04:03:15;;;;;;;12.45;7.70;;;17.00;99.90;;;;;;4974504;28;20145;-60
2022/08/11 04:06:24;;;;;;;11.98;7.40;;;17.10;99.90;;;;;;4985549;28;20050;-60
2022/08/11 04:09:30;;;;;;;10.00;7.25;;;17.20;99.90;;;;;;4932866;28;20074;-60
2022/08/11 04:12:34;;;;;;;15.40;7.32;;;17.20;99.90;;;;;;4986907;28;20042;-60
2022/08/11 04:18:42;;;;;;;11.23;8.43;;;17.30;99.90;;;;;;4945001;29;20105;-60
2022/08/11 04:21:26;;;;;;;9.82;6.45;;;17.50;99.90;;;;;;4989730;28;20073;-60
2022/08/11 04:24:21;;;;;;;9.88;7.43;;;17.60;99.90;;;;;;4969079;28;20129;-59
2022/08/11 04:27:16;;;;;;;13.38;8.02;;;17.60;99.90;;;;;;4984702;28;20062;-60
2022/08/11 04:29:59;;;;;;;15.90;7.72;;;17.70;99.90;;;;;;4968751;28;20062;-60
2022/08/11 04:32:48;;;;;;;10.77;6.95;;;17.80;99.90;;;;;;4966134;28;20054;-60
2022/08/11 04:35:30;;;;;;;11.95;7.57;;;17.90;99.90;;;;;;4986318;28;20051;-59
2022/08/11 04:38:38;;;;;;;10.35;7.18;;;18.00;99.90;;;;;;4987650;28;20132;-60
2022/08/11 04:41:30;;;;;;;12.55;8.30;;;18.00;99.90;;;;;;4977009;28;20283;-60
2022/08/11 04:44:35;;;;;;;15.77;8.50;;;17.70;99.90;;;;;;4976518;28;20054;-61
2022/08/11 05:02:59;;;;;;;12.32;7.88;;;17.60;99.90;;;;;;4975478;28;20058;-60
2022/08/11 05:05:49;;;;;;;8.77;6.55;;;17.90;99.90;;;;;;4955375;28;20121;-59
2022/08/11 05:09:05;;;;;;;13.50;8.40;;;17.90;99.90;;;;;;4965610;28;20050;-60
2022/08/11 05:11:59;;;;;;;10.85;6.40;;;17.90;99.90;;;;;;4975933;28;20069;-60
2022/08/11 05:34:53;;;;;;;11.23;6.47;;;18.70;99.90;;;;;;4942571;29;20491;-59
2022/08/11 05:37:25;;;;;;;9.25;6.13;;;18.80;99.90;;;;;;4950836;28;20054;-59
2022/08/11 05:56:44;;;;;;;10.60;5.50;;;19.60;99.90;;;;;;4987372;28;20169;-60
2022/08/11 05:59:16;;;;;;;8.75;5.53;;;19.60;99.90;;;;;;4986369;28;20425;-59
2022/08/11 06:01:44;;;;;;;10.40;6.20;;;19.70;99.90;;;;;;4984606;28;20552;-59
2022/08/11 06:04:17;;;;;;;10.48;5.32;;;19.90;99.90;;;;;;4970750;28;20659;-60
2022/08/11 06:06:56;;;;;;;7.47;4.97;;;20.00;99.90;;;;;;4992055;28;20054;-60
2022/08/11 06:09:34;;;;;;;17.92;5.38;;;20.10;99.90;;;;;;4990052;28;20077;-60
2022/08/11 06:12:07;;;;;;;11.45;5.30;;;20.30;99.90;;;;;;4989153;28;20081;-60
2022/08/11 06:14:35;;;;;;;9.50;5.13;;;20.50;99.90;;;;;;4988630;28;20046;-59
2022/08/11 06:17:05;;;;;;;7.43;4.50;;;20.60;99.90;;;;;;4971120;28;20557;-59
2022/08/11 06:19:38;;;;;;;6.40;4.40;;;20.80;99.90;;;;;;4989685;28;20083;-60
2022/08/11 06:22:06;;;;;;;9.68;5.07;;;21.00;99.90;;;;;;4974477;28;20133;-60
2022/08/11 06:24:34;;;;;;;9.35;4.78;;;21.20;99.90;;;;;;4969022;28;20047;-60
2022/08/11 06:27:05;;;;;;;8.55;5.03;;;21.40;99.90;;;;;;4969640;28;20414;-60
2022/08/11 06:29:33;;;;;;;;;;;21.50;99.90;;;;;;4968879;28;20076;-60
2022/08/11 06:32:01;;;;;;;10.35;4.60;;;21.80;99.90;;;;;;4950732;28;20024;-60
2022/08/11 06:34:39;;;;;;;14.07;4.95;;;22.00;99.90;;;;;;4957732;28;20043;-60
2022/08/11 06:37:22;;;;;;;8.35;3.75;;;22.40;99.90;;;;;;4975530;28;20059;-60
2022/08/11 06:39:59;;;;;;;12.15;4.03;;;22.90;99.90;;;;;;4970739;28;20054;-59
2022/08/11 06:42:51;;;;;;;8.38;4.38;;;23.40;99.90;;;;;;4972275;28;20099;-60
2022/08/11 06:45:27;;;;;;;10.23;4.28;;;24.00;99.90;;;;;;4949074;28;20058;-60
2022/08/11 06:47:56;;;;;;;6.50;3.95;;;24.50;99.90;;;;;;4967682;28;20499;-60
2022/08/11 06:53:11;;;;;;;9.43;3.80;;;25.40;99.90;;;;;;4969344;28;20043;-60
2022/08/11 07:01:22;;;;;;;9.48;4.03;;;27.20;99.10;;;;;;4967894;28;20055;-60
2022/08/11 07:03:56;;;;;;;5.03;3.47;;;27.70;97.80;;;;;;4970286;28;20328;-61
2022/08/11 07:06:37;;;;;;;7.15;3.40;;;28.10;96.10;;;;;;4947926;28;20498;-61
2022/08/11 07:15:42;;;;;;;6.20;3.30;;;29.50;90.70;;;;;;4970910;28;20073;-61
2022/08/11 07:29:38;;;;;;;;;;;30.60;90.10;;;;;;4966543;28;20047;-60
2022/08/11 07:32:25;;;;;;;7.93;3.28;;;30.70;88.40;;;;;;4967493;28;19926;-60
2022/08/11 07:34:59;;;;;;;10.07;3.35;;;30.90;86.60;;;;;;4965489;28;20046;-61
2022/08/11 07:37:30;;;;;;;15.25;3.17;;;31.20;85.10;;;;;;4973757;28;20046;-61
2022/08/11 07:39:59;;;;;;;4.20;2.38;;;31.20;85.50;;;;;;4953710;28;20542;-60
2022/08/11 07:42:29;;;;;;;9.93;2.60;;;31.80;86.10;;;;;;4949986;28;20135;-61
2022/08/11 07:53:15;;;;;;;5.18;1.98;;;32.90;81.10;;;;;;4967787;28;20038;-60
2022/08/11 07:55:43;;;;;;;8.80;2.55;;;33.20;80.30;;;;;;4966795;28;20113;-60
2022/08/11 08:17:51;;;;;;;3.95;1.88;;;34.10;74.80;;;;;;4952511;28;20051;-67
2022/08/11 08:20:23;;;;;;;6.55;1.88;;;34.30;74.10;;;;;;4969095;28;20085;-67
2022/08/11 08:22:55;;;;;;;6.45;1.80;;;34.40;73.70;;;;;;4968942;28;20055;-67
2022/08/11 08:25:23;;;;;;;2.63;1.40;;;34.50;71.80;;;;;;4965173;28;20047;-67
2022/08/11 08:27:51;;;;;;;6.65;1.70;;;34.50;71.50;;;;;;4967032;28;20085;-67
2022/08/11 08:33:04;;;;;;;5.60;1.88;;;34.80;70.60;;;;;;4950249;28;20078;-67
2022/08/11 08:35:32;;;;;;;2.92;1.83;;;34.80;70.70;;;;;;4951331;28;20062;-66
2022/08/11 08:38:00;;;;;;;4.20;1.73;;;35.10;69.80;;;;;;4969822;28;20089;-67
2022/08/11 08:40:27;;;;;;;2.67;1.33;;;35.60;70.00;;;;;;4967408;28;20114;-67
2022/08/11 08:42:56;;;;;;;2.92;1.45;;;35.60;68.60;;;;;;4967370;28;20589;-67
2022/08/11 08:45:25;;;;;;;2.92;1.30;;;36.00;68.10;;;;;;4968501;28;20089;-67
2022/08/11 08:47:59;;;;;;;3.90;1.40;;;35.90;67.80;;;;;;4967097;28;20414;-66
2022/08/11 08:51:33;;;;;;;3.72;1.30;;;35.90;66.20;;;;;;4967035;28;20082;-67
2022/08/11 08:53:22;;;;;;;5.82;1.58;;;36.20;66.30;;;;;;4967375;28;20126;-67
2022/08/11 08:55:50;;;;;;;6.70;1.40;;;36.50;65.90;;;;;;4964713;28;20470;-67
2022/08/11 08:58:20;;;;;;;3.78;1.40;;;36.30;66.10;;;;;;4953440;28;20054;-67
2022/08/11 09:00:50;;;;;;;5.72;1.20;;;36.40;65.40;;;;;;4965228;28;20094;-67
2022/08/11 09:03:18;;;;;;;4.93;1.33;;;36.60;65.60;;;;;;4948070;28;20043;-67
2022/08/11 09:05:46;;;;;;;3.65;1.58;;;36.70;65.40;;;;;;4965367;28;20082;-66
2022/08/11 09:08:13;;;;;;;3.47;1.10;;;36.80;65.10;;;;;;4967647;28;20042;-66
2022/08/11 09:10:41;;;;;;;5.20;1.30;;;36.70;64.20;;;;;;4967014;28;20066;-66
2022/08/11 09:13:08;;;;;;;3.75;1.30;;;36.80;64.30;;;;;;4966578;28;20106;-67
2022/08/11 09:15:36;;;;;;;2.55;1.25;;;36.70;63.60;;;;;;4967070;28;20047;-66
2022/08/11 09:18:08;;;;;;;5.43;1.20;;;36.80;63.50;;;;;;4968706;28;20053;-67
2022/08/11 09:20:37;;;;;;;8.52;1.55;;;37.20;62.30;;;;;;4952122;28;20098;-67
2022/08/11 09:28:42;;;;;;;6.65;1.77;;;37.60;60.20;;;;;;4965655;28;20126;-67
2022/08/11 09:31:11;;;;;;;5.32;1.30;;;37.50;60.40;;;;;;4965562;28;20117;-67
2022/08/11 09:33:39;;;;;;;3.13;1.20;;;37.40;60.40;;;;;;4965050;28;20047;-67
2022/08/11 09:41:36;;;;;;;3.05;1.20;;;37.80;59.40;;;;;;4969299;28;20487;-67
2022/08/11 09:46:49;;;;;;;5.03;1.95;;;38.60;57.90;;;;;;4966941;28;20042;-67
2022/08/11 09:49:20;;;;;;;3.55;1.48;;;38.60;57.30;;;;;;4974113;28;20042;-67
2022/08/11 09:51:49;;;;;;;5.82;1.50;;;39.00;56.40;;;;;;4969110;28;20051;-66
2022/08/11 09:54:16;;;;;;;5.60;1.65;;;39.00;57.30;;;;;;4971657;28;20121;-67
2022/08/11 09:59:31;;;;;;;3.45;1.20;;;38.40;55.80;;;;;;4971647;28;20129;-67
2022/08/11 10:02:00;;;;;;;2.30;1.30;;;38.50;56.60;;;;;;4968032;28;20399;-67
2022/08/11 10:04:31;;;;;;;;;;;38.60;56.00;;;;;;4966949;28;20089;-67
2022/08/11 10:07:00;;;;;;;4.25;1.02;;;38.30;53.90;;;;;;4974177;28;19926;-66
2022/08/11 10:09:29;;;;;;;2.75;0.93;;;38.40;55.30;;;;;;4969559;28;20105;-67
2022/08/11 10:11:59;;;;;;;2.20;1.30;;;38.50;54.70;;;;;;4967602;28;20058;-66
2022/08/11 10:17:14;;;;;;;2.75;1.10;;;39.00;55.30;;;;;;4966211;28;20046;-67
2022/08/11 10:19:43;;;;;;;5.47;1.35;;;39.00;53.70;;;;;;4972580;28;20051;-67
2022/08/11 10:27:44;;;;;;;4.63;1.05;;;39.60;53.30;;;;;;4957830;28;20066;-67
2022/08/11 10:35:45;;;;;;;4.20;0.95;;;39.20;53.50;;;;;;4975543;28;20046;-67
2022/08/11 10:38:14;;;;;;;5.65;1.38;;;39.50;52.60;;;;;;4957323;28;20486;-68
2022/08/11 10:43:01;;;;;;;3.22;0.95;;;39.00;52.70;;;;;;4959095;28;20097;-68
2022/08/11 10:43:36;;;;;;;7.82;1.20;;;38.90;52.80;;;;;;4957361;28;20132;-67
2022/08/11 10:48:47;;;;;;;4.20;1.10;;;38.80;52.60;;;;;;4975448;28;20042;-67
2022/08/11 10:51:13;;;;;;;3.08;1.17;;;38.90;52.60;;;;;;4975018;28;20114;-67
2022/08/11 10:59:16;;;;;;;3.92;1.30;;;39.20;52.30;;;;;;4974918;28;20043;-68
2022/08/11 11:01:45;;;;;;;2.05;0.90;;;39.50;51.90;;;;;;4975298;28;20086;-67
2022/08/11 11:04:13;;;;;;;;;;;39.70;51.80;;;;;;4975824;28;20476;-67
2022/08/11 11:06:50;;;;;;;5.03;1.10;;;39.00;51.60;;;;;;4974699;28;19968;-67
2022/08/11 11:09:19;;;;;;;3.88;0.98;;;39.10;53.40;;;;;;4958006;28;20097;-67
2022/08/11 11:20:17;;;;;;;4.88;1.00;;;39.70;51.50;;;;;;4957465;28;20042;-68
2022/08/11 11:22:51;;;;;;;5.72;1.15;;;39.90;52.30;;;;;;4980275;28;20108;-67
2022/08/11 11:25:25;;;;;;;4.43;1.23;;;39.40;52.30;;;;;;4994329;28;20501;-67
2022/08/11 11:28:18;;;;;;;2.67;1.00;;;39.40;52.70;;;;;;4976291;28;20097;-66
2022/08/11 11:30:57;;;;;;;4.85;1.17;;;39.70;51.60;;;;;;4994351;28;20050;-67
2022/08/11 11:33:37;;;;;;;2.38;1.15;;;39.50;52.30;;;;;;4976149;28;20139;-67
2022/08/11 11:36:13;;;;;;;3.08;1.17;;;39.80;51.00;;;;;;4976790;28;20051;-67
2022/08/11 11:38:41;;;;;;;3.90;1.05;;;39.90;50.70;;;;;;4993828;28;20050;-67
2022/08/11 11:41:27;;;;;;;4.37;1.20;;;39.50;51.90;;;;;;4972372;28;20101;-66
2022/08/11 11:43:55;;;;;;;5.75;1.20;;;39.50;51.90;;;;;;4974567;28;20051;-66
2022/08/11 11:46:27;;;;;;;3.50;1.30;;;39.80;51.90;;;;;;4960138;28;20050;-68
2022/08/11 11:48:55;;;;;;;3.15;1.23;;;39.70;52.10;;;;;;4974010;28;20082;-68
2022/08/11 11:51:23;;;;;;;5.40;1.40;;;40.00;51.90;;;;;;4974772;28;20082;-67
2022/08/11 11:53:51;;;;;;;4.38;1.10;;;40.20;51.90;;;;;;4957008;28;20572;-67
2022/08/11 11:56:19;;;;;;;2.75;1.20;;;40.40;52.20;;;;;;4956359;28;20117;-68
2022/08/11 12:01:35;;;;;;;4.93;1.10;;;39.50;51.20;;;;;;4973937;28;20286;-67
2022/08/11 12:04:05;;;;;;;2.95;1.30;;;39.40;51.70;;;;;;4974555;28;20057;-67
2022/08/11 12:06:33;;;;;;;2.53;1.50;;;39.50;52.10;;;;;;4956395;28;20105;-68
2022/08/11 12:09:00;;;;;;;3.60;1.30;;;39.80;52.10;;;;;;4973351;28;20524;-67
2022/08/11 12:14:18;;;;;;;3.17;1.25;;;40.30;52.00;;;;;;4955184;28;20651;-66
2022/08/11 12:16:48;;;;;;;5.00;1.20;;;39.90;51.80;;;;;;4973062;28;20524;-67
2022/08/11 12:19:18;;;;;;;6.03;1.30;;;39.90;51.70;;;;;;4957023;28;20047;-67
2022/08/11 12:27:21;;;;;;;2.28;0.75;;;40.30;52.00;;;;;;4971544;28;20046;-66
2022/08/11 12:29:50;;;;;;;7.05;1.30;;;40.30;51.30;;;;;;4974148;28;20054;-66
2022/08/11 12:32:20;;;;;;;1.90;0.90;;;40.00;50.90;;;;;;4956907;28;20565;-66
2022/08/11 12:34:48;;;;;;;8.10;1.10;;;40.40;50.80;;;;;;4974099;28;20089;-65
2022/08/11 12:37:22;;;;;;;2.78;0.90;;;40.20;50.90;;;;;;4974086;28;20051;-67
2022/08/11 12:45:27;;;;;;;4.90;1.00;;;40.00;51.40;;;;;;4973204;28;20159;-66
2022/08/11 12:53:44;;;;;;;1.85;0.90;;;40.10;50.80;;;;;;4973833;28;20046;-66
2022/08/11 13:07:17;;;;;;;26.65;3.65;;;40.60;51.70;;;;;;4976800;28;20525;-66
2022/08/11 13:09:45;;;;;;;17.27;2.25;;;40.00;51.60;;;;;;4969627;28;20139;-67
2022/08/11 13:14:59;;;;;;;15.65;2.28;;;40.00;51.20;;;;;;4976563;28;20058;-67
2022/08/11 13:17:28;;;;;;;10.35;1.90;;;39.70;52.00;;;;;;4961000;28;20047;-68
2022/08/11 13:19:58;;;;;;;6.40;1.75;;;40.00;52.10;;;;;;4976909;28;20506;-67
2022/08/11 13:22:26;;;;;;;2.33;0.88;;;40.00;51.70;;;;;;4976631;28;20109;-68
2022/08/11 13:24:55;;;;;;;3.50;1.40;;;40.30;51.60;;;;;;4977813;28;20513;-67
2022/08/11 13:27:22;;;;;;;6.25;1.50;;;40.50;51.70;;;;;;4959780;28;20646;-68
2022/08/11 13:29:52;;;;;;;4.20;1.00;;;40.40;51.20;;;;;;4960468;28;20509;-66
2022/08/11 13:32:25;;;;;;;4.53;0.95;;;40.40;50.90;;;;;;4970288;28;20066;-67
2022/08/11 13:34:52;;;;;;;6.10;0.90;;;40.50;51.00;;;;;;4956397;29;20462;-67
2022/08/11 13:37:21;;;;;;;3.85;0.95;;;40.60;51.00;;;;;;4958303;28;20051;-67
2022/08/11 13:39:48;;;;;;;2.80;1.10;;;40.50;50.70;;;;;;4963934;28;20054;-67
2022/08/11 13:42:19;;;;;;;3.88;0.90;;;40.50;50.70;;;;;;4960117;28;20510;-67
2022/08/11 13:44:46;;;;;;;4.15;1.13;;;40.70;50.60;;;;;;4959686;28;20562;-67
2022/08/11 13:47:15;;;;;;;4.32;1.20;;;40.90;50.50;;;;;;4959422;28;20108;-68
2022/08/11 13:49:43;;;;;;;2.33;0.88;;;40.40;49.80;;;;;;4977294;28;20090;-67
2022/08/11 13:52:12;;;;;;;3.90;1.08;;;40.90;50.20;;;;;;4977594;28;20059;-67
2022/08/11 13:54:42;;;;;;;3.78;0.90;;;40.50;49.70;;;;;;4976442;28;20081;-67
2022/08/11 13:57:11;;;;;;;3.42;1.15;;;40.60;50.00;;;;;;4976408;28;20090;-67
2022/08/11 13:59:38;;;;;;;2.95;0.98;;;40.70;49.90;;;;;;4976504;28;20097;-67
2022/08/11 14:02:08;;;;;;;4.05;1.17;;;40.70;50.60;;;;;;4978536;28;20050;-67
2022/08/11 14:04:41;;;;;;;4.43;0.90;;;40.60;49.50;;;;;;4978692;28;20050;-68
2022/08/11 14:07:13;;;;;;;3.30;1.10;;;40.60;49.20;;;;;;4996263;28;20381;-67
2022/08/11 14:09:44;;;;;;;2.50;1.00;;;40.80;49.60;;;;;;4940204;29;20180;-68
2022/08/11 14:15:04;;;;;;;5.10;1.33;;;40.70;49.40;;;;;;4957055;29;20196;-67
2022/08/11 14:17:33;;;;;;;3.28;1.00;;;40.10;49.60;;;;;;4957552;29;20181;-67
2022/08/11 14:20:05;;;;;;;2.50;1.00;;;40.40;50.00;;;;;;4952071;28;20109;-67
2022/08/11 14:22:32;;;;;;;6.28;1.15;;;40.60;50.30;;;;;;4980461;28;20050;-67
2022/08/11 14:25:00;;;;;;;3.33;1.00;;;40.10;49.90;;;;;;4978431;28;20433;-67
2022/08/11 14:27:30;;;;;;;;;;;39.90;50.20;;;;;;4979163;28;20054;-67
2022/08/11 14:29:57;;;;;;;3.58;0.80;;;38.90;50.00;;;;;;4995953;28;19925;-67
2022/08/11 14:32:25;;;;;;;4.85;1.17;;;38.30;51.20;;;;;;4987854;28;20065;-66
2022/08/11 14:34:53;;;;;;;3.08;1.00;;;37.60;51.30;;;;;;4988763;28;20104;-67
2022/08/11 14:37:21;;;;;;;2.63;1.00;;;37.00;51.90;;;;;;4978402;28;20141;-67
2022/08/11 14:39:52;;;;;;;2.92;1.00;;;36.30;52.00;;;;;;4978544;28;20494;-66
2022/08/11 14:47:57;;;;;;;;;;;35.10;53.90;;;;;;4979055;28;20046;-67
2022/08/11 14:50:26;;;;;;;3.13;1.23;;;34.60;55.80;;;;;;4995009;28;20499;-67
2022/08/11 14:52:55;;;;;;;;;;;34.30;56.20;;;;;;4996377;28;20050;-67
2022/08/11 14:58:12;;;;;;;6.63;1.33;;;34.00;57.30;;;;;;4994845;28;20406;-66
2022/08/11 15:00:42;;;;;;;4.75;1.30;;;33.90;58.20;;;;;;4979411;28;20494;-67
2022/08/11 15:03:11;;;;;;;6.53;1.35;;;33.70;57.90;;;;;;4995782;28;20046;-67
2022/08/11 15:05:46;;;;;;;6.38;1.30;;;33.50;57.70;;;;;;4977617;28;20050;-67
2022/08/11 15:08:14;;;;;;;5.55;1.27;;;33.00;58.20;;;;;;4995528;28;20085;-67
2022/08/11 15:10:42;;;;;;;6.00;1.40;;;32.90;58.40;;;;;;4977335;28;20481;-67
2022/08/11 15:13:10;;;;;;;4.50;1.60;;;32.60;58.60;;;;;;4994521;28;20097;-67
2022/08/11 15:18:25;;;;;;;3.78;1.20;;;32.30;58.60;;;;;;4976838;28;20046;-67
2022/08/11 15:37:35;;;;;;;;;;;31.10;59.90;;;;;;4990000;28;20089;-67
2022/08/11 15:45:50;;;;;;;5.63;2.22;;;30.90;61.00;;;;;;4969006;28;20061;-66
2022/08/11 15:48:28;;;;;;;5.63;1.30;;;30.70;60.80;;;;;;4965586;28;20061;-66
2022/08/11 15:50:59;;;;;;;4.28;1.30;;;30.70;61.90;;;;;;4982161;28;20062;-68
2022/08/11 15:53:33;;;;;;;4.00;1.38;;;30.60;61.50;;;;;;4974205;28;20466;-66
2022/08/11 15:56:01;;;;;;;3.20;1.50;;;30.50;62.40;;;;;;4973607;28;20042;-66
2022/08/11 16:04:15;;;;;;;2.65;1.40;;;30.20;63.50;;;;;;4948143;28;20141;-66
2022/08/11 16:06:47;;;;;;;5.65;1.70;;;30.00;63.50;;;;;;4976179;28;20050;-66
2022/08/11 16:09:17;;;;;;;4.05;1.38;;;30.00;63.70;;;;;;4976057;28;20058;-66
2022/08/11 16:11:45;;;;;;;5.80;1.83;;;29.90;63.90;;;;;;4993867;28;20068;-66
2022/08/11 16:17:03;;;;;;;4.55;1.80;;;29.70;63.60;;;;;;4975035;28;20143;-67
2022/08/11 16:19:33;;;;;;;4.00;1.40;;;29.60;64.00;;;;;;4992821;28;20050;-67
2022/08/11 16:22:01;;;;;;;6.30;1.40;;;29.50;63.80;;;;;;4991617;28;20050;-67
2022/08/11 16:24:29;;;;;;;4.18;1.55;;;29.30;64.00;;;;;;4993649;28;20050;-67
2022/08/11 16:26:58;;;;;;;2.70;1.20;;;29.10;64.60;;;;;;4992274;28;20105;-67
2022/08/11 16:29:26;;;;;;;10.45;1.60;;;29.00;64.70;;;;;;4974685;28;20109;-67
2022/08/11 16:40:21;;;;;;;3.20;1.35;;;28.60;66.00;;;;;;4993430;28;20406;-66
2022/08/11 16:48:23;;;;;;;4.18;1.60;;;28.50;66.80;;;;;;4974121;28;20053;-68
2022/08/11 16:50:51;;;;;;;4.57;1.63;;;28.30;66.90;;;;;;4991998;28;20050;-67
2022/08/11 16:53:18;;;;;;;4.57;1.30;;;28.20;66.60;;;;;;4975582;28;20117;-67
2022/08/11 16:55:48;;;;;;;2.85;1.73;;;28.10;66.80;;;;;;4992219;28;20405;-67
2022/08/11 17:01:02;;;;;;;3.55;1.40;;;28.00;67.20;;;;;;4992024;28;20042;-67
2022/08/11 17:14:44;;;;;;;5.22;2.15;;;27.50;69.10;;;;;;4974058;28;20074;-68
2022/08/11 17:17:15;;;;;;;8.07;1.90;;;27.40;69.30;;;;;;4974147;28;20050;-67
2022/08/11 17:19:46;;;;;;;3.00;1.48;;;27.20;70.00;;;;;;4973443;28;23043;-67
2022/08/11 17:25:02;;;;;;;6.50;1.58;;;27.10;70.20;;;;;;4990056;28;20042;-67
2022/08/11 17:27:31;;;;;;;4.15;1.42;;;27.10;70.70;;;;;;4974451;28;20050;-67
2022/08/11 17:30:01;;;;;;;6.53;2.47;;;27.00;71.30;;;;;;4974446;28;20054;-67
2022/08/11 17:35:29;;;;;;;3.13;2.10;;;26.90;71.80;;;;;;4992159;28;20061;-66
2022/08/11 17:38:02;;;;;;;3.40;1.80;;;26.80;72.10;;;;;;4992215;28;20447;-67
2022/08/11 17:40:31;;;;;;;5.60;1.88;;;26.70;72.20;;;;;;4991355;28;20050;-68
2022/08/11 17:48:30;;;;;;;6.75;2.05;;;26.50;73.70;;;;;;4952630;28;20050;-67
2022/08/11 17:50:59;;;;;;;6.40;1.90;;;26.40;73.80;;;;;;4991946;28;20076;-67
2022/08/11 18:03:28;;;;;;;8.43;2.33;;;26.10;74.80;;;;;;4898459;29;20079;-66
2022/08/11 18:04:50;;;;;;;4.72;1.90;;;26.00;75.20;;;;;;4988215;28;20058;-68
